sensor_id;sensor_type;location;lat;lon;timestamp;pressure;altitude;pressure_sealevel;temperature;humidity
12785;BME280;6456;42.680;23.260;2023-12-14T00:01:53;93678.50;;;7.15;100.00
12785;BME280;6456;42.680;23.260;2023-12-14T00:04:20;93686.47;;;7.26;100.00
12785;BME280;6456;42.680;23.260;2023-12-14T00:06:49;93658.75;;;6.94;100.00
12785;BME280;6456;42.680;23.260;2023-12-14T00:09:16;93656.13;;;6.94;100.00
12785;BME280;6456;42.680;23.260;2023-12-14T00:11:43;93689.19;;;7.13;100.00
12785;BME280;6456;42.680;23.260;2023-12-14T00:14:10;93696.63;;;7.16;100.00
12785;BME280;6456;42.680;23.260;2023-12-14T00:16:37;93692.00;;;7.11;100.00
12785;BME280;6456;42.680;23.260;2023-12-14T00:19:05;93699.69;;;7.06;100.00
12785;BME280;6456;42.680;23.260;2023-12-14T00:21:31;93688.22;;;7.07;100.00
12785;BME280;6456;42.680;23.260;2023-12-14T00:24:00;93714.56;;;7.13;100.00
12785;BME280;6456;42.680;23.260;2023-12-14T00:26:27;93666.72;;;6.81;100.00
12785;BME280;6456;42.680;23.260;2023-12-14T00:28:54;93702.13;;;7.08;100.00
12785;BME280;6456;42.680;23.260;2023-12-14T00:31:21;93664.84;;;6.88;100.00
12785;BME280;6456;42.680;23.260;2023-12-14T00:33:48;93706.94;;;7.11;100.00
12785;BME280;6456;42.680;23.260;2023-12-14T00:36:18;93670.44;;;6.91;100.00
12785;BME280;6456;42.680;23.260;2023-12-14T00:38:46;93657.59;;;6.90;100.00
12785;BME280;6456;42.680;23.260;2023-12-14T00:41:14;93697.13;;;7.00;100.00
12785;BME280;6456;42.680;23.260;2023-12-14T00:43:41;93705.16;;;7.05;100.00
12785;BME280;6456;42.680;23.260;2023-12-14T00:46:08;93698.94;;;6.99;100.00
12785;BME280;6456;42.680;23.260;2023-12-14T00:48:37;93662.50;;;6.80;100.00
12785;BME280;6456;42.680;23.260;2023-12-14T00:51:04;93671.53;;;6.84;100.00
12785;BME280;6456;42.680;23.260;2023-12-14T00:53:31;93686.50;;;6.95;100.00
12785;BME280;6456;42.680;23.260;2023-12-14T00:55:58;93703.75;;;7.02;100.00
12785;BME280;6456;42.680;23.260;2023-12-14T00:58:27;93685.50;;;6.96;100.00
12785;BME280;6456;42.680;23.260;2023-12-14T01:00:54;93679.25;;;6.97;100.00
12785;BME280;6456;42.680;23.260;2023-12-14T01:03:21;93681.72;;;6.92;100.00
12785;BME280;6456;42.680;23.260;2023-12-14T01:05:48;93694.75;;;6.98;100.00
12785;BME280;6456;42.680;23.260;2023-12-14T01:08:15;93667.13;;;6.78;100.00
12785;BME280;6456;42.680;23.260;2023-12-14T01:10:42;93678.66;;;6.95;100.00
12785;BME280;6456;42.680;23.260;2023-12-14T01:13:09;93681.53;;;6.87;100.00
12785;BME280;6456;42.680;23.260;2023-12-14T01:15:38;93690.69;;;7.02;100.00
12785;BME280;6456;42.680;23.260;2023-12-14T01:18:05;93688.75;;;6.91;100.00
12785;BME280;6456;42.680;23.260;2023-12-14T01:20:32;93657.84;;;6.82;100.00
12785;BME280;6456;42.680;23.260;2023-12-14T01:22:59;93661.91;;;6.78;100.00
12785;BME280;6456;42.680;23.260;2023-12-14T01:25:26;93654.66;;;6.80;100.00
12785;BME280;6456;42.680;23.260;2023-12-14T01:27:53;93703.94;;;7.07;100.00
12785;BME280;6456;42.680;23.260;2023-12-14T01:30:21;93684.81;;;7.07;100.00
12785;BME280;6456;42.680;23.260;2023-12-14T01:32:50;93661.81;;;6.91;100.00
12785;BME280;6456;42.680;23.260;2023-12-14T01:35:17;93656.25;;;6.81;100.00
12785;BME280;6456;42.680;23.260;2023-12-14T01:37:44;93705.22;;;6.98;100.00
12785;BME280;6456;42.680;23.260;2023-12-14T01:40:12;93653.75;;;6.68;100.00
12785;BME280;6456;42.680;23.260;2023-12-14T01:42:42;93695.59;;;6.92;100.00
12785;BME280;6456;42.680;23.260;2023-12-14T01:45:09;93668.41;;;6.69;100.00
12785;BME280;6456;42.680;23.260;2023-12-14T01:47:38;93679.47;;;6.71;100.00
12785;BME280;6456;42.680;23.260;2023-12-14T01:50:07;93675.97;;;6.77;100.00
12785;BME280;6456;42.680;23.260;2023-12-14T01:52:35;93679.38;;;6.84;100.00
12785;BME280;6456;42.680;23.260;2023-12-14T01:55:02;93678.16;;;6.86;100.00
12785;BME280;6456;42.680;23.260;2023-12-14T01:57:29;93655.03;;;6.59;100.00
12785;BME280;6456;42.680;23.260;2023-12-14T01:59:56;93671.03;;;6.69;100.00
12785;BME280;6456;42.680;23.260;2023-12-14T02:02:23;93636.38;;;6.49;100.00
12785;BME280;6456;42.680;23.260;2023-12-14T02:04:51;93665.47;;;6.59;100.00
12785;BME280;6456;42.680;23.260;2023-12-14T02:07:19;93649.19;;;6.57;100.00
12785;BME280;6456;42.680;23.260;2023-12-14T02:09:46;93642.78;;;6.53;100.00
12785;BME280;6456;42.680;23.260;2023-12-14T02:12:13;93640.25;;;6.39;100.00
12785;BME280;6456;42.680;23.260;2023-12-14T02:14:40;93650.88;;;6.44;100.00
12785;BME280;6456;42.680;23.260;2023-12-14T02:17:07;93626.34;;;6.45;100.00
12785;BME280;6456;42.680;23.260;2023-12-14T02:19:34;93653.97;;;6.66;100.00
12785;BME280;6456;42.680;23.260;2023-12-14T02:22:01;93616.66;;;6.53;100.00
12785;BME280;6456;42.680;23.260;2023-12-14T02:24:30;93593.47;;;6.31;100.00
12785;BME280;6456;42.680;23.260;2023-12-14T02:26:58;93621.81;;;6.59;100.00
12785;BME280;6456;42.680;23.260;2023-12-14T02:29:28;93621.97;;;6.64;100.00
12785;BME280;6456;42.680;23.260;2023-12-14T02:31:55;93570.50;;;6.40;100.00
12785;BME280;6456;42.680;23.260;2023-12-14T02:34:22;93642.97;;;6.82;100.00
12785;BME280;6456;42.680;23.260;2023-12-14T02:36:50;93647.72;;;6.92;100.00
12785;BME280;6456;42.680;23.260;2023-12-14T02:39:19;93621.72;;;6.72;100.00
12785;BME280;6456;42.680;23.260;2023-12-14T02:41:48;93654.50;;;6.99;100.00
12785;BME280;6456;42.680;23.260;2023-12-14T02:44:15;93586.91;;;6.54;100.00
12785;BME280;6456;42.680;23.260;2023-12-14T02:46:42;93639.72;;;6.87;100.00
12785;BME280;6456;42.680;23.260;2023-12-14T02:49:09;93653.25;;;7.02;100.00
12785;BME280;6456;42.680;23.260;2023-12-14T02:51:36;93634.28;;;6.88;100.00
12785;BME280;6456;42.680;23.260;2023-12-14T02:54:04;93634.94;;;6.84;100.00
12785;BME280;6456;42.680;23.260;2023-12-14T02:56:31;93660.13;;;6.96;100.00
12785;BME280;6456;42.680;23.260;2023-12-14T02:58:59;93616.47;;;6.79;100.00
12785;BME280;6456;42.680;23.260;2023-12-14T03:01:26;93597.69;;;6.64;100.00
12785;BME280;6456;42.680;23.260;2023-12-14T03:03:53;93681.09;;;7.21;100.00
12785;BME280;6456;42.680;23.260;2023-12-14T03:06:20;93666.41;;;7.20;100.00
12785;BME280;6456;42.680;23.260;2023-12-14T03:08:47;93618.75;;;6.93;100.00
12785;BME280;6456;42.680;23.260;2023-12-14T03:11:21;93615.34;;;6.93;100.00
12785;BME280;6456;42.680;23.260;2023-12-14T03:13:49;93613.44;;;7.00;100.00
12785;BME280;6456;42.680;23.260;2023-12-14T03:16:18;93604.66;;;6.94;100.00
12785;BME280;6456;42.680;23.260;2023-12-14T03:18:45;93635.44;;;7.17;100.00
12785;BME280;6456;42.680;23.260;2023-12-14T03:21:13;93643.84;;;7.19;100.00
12785;BME280;6456;42.680;23.260;2023-12-14T03:23:40;93644.81;;;7.25;100.00
12785;BME280;6456;42.680;23.260;2023-12-14T03:26:07;93629.78;;;7.20;100.00
12785;BME280;6456;42.680;23.260;2023-12-14T03:28:34;93647.84;;;7.22;100.00
12785;BME280;6456;42.680;23.260;2023-12-14T03:31:02;93642.13;;;7.13;100.00
12785;BME280;6456;42.680;23.260;2023-12-14T03:33:33;93617.69;;;7.01;100.00
12785;BME280;6456;42.680;23.260;2023-12-14T03:36:00;93580.75;;;6.91;100.00
12785;BME280;6456;42.680;23.260;2023-12-14T03:38:28;93607.78;;;7.03;100.00
12785;BME280;6456;42.680;23.260;2023-12-14T03:40:55;93603.16;;;7.05;100.00
12785;BME280;6456;42.680;23.260;2023-12-14T03:43:22;93611.69;;;7.19;100.00
12785;BME280;6456;42.680;23.260;2023-12-14T03:45:49;93610.06;;;7.18;100.00
12785;BME280;6456;42.680;23.260;2023-12-14T03:48:16;93588.31;;;6.99;100.00
12785;BME280;6456;42.680;23.260;2023-12-14T03:50:45;93601.50;;;7.10;100.00
12785;BME280;6456;42.680;23.260;2023-12-14T03:53:12;93569.56;;;7.02;100.00
12785;BME280;6456;42.680;23.260;2023-12-14T03:55:39;93604.03;;;7.17;100.00
12785;BME280;6456;42.680;23.260;2023-12-14T04:00:51;93617.69;;;7.19;100.00
12785;BME280;6456;42.680;23.260;2023-12-14T04:03:18;93587.59;;;7.10;100.00
12785;BME280;6456;42.680;23.260;2023-12-14T04:05:47;93613.69;;;7.17;100.00
12785;BME280;6456;42.680;23.260;2023-12-14T04:08:14;93596.16;;;6.99;100.00
12785;BME280;6456;42.680;23.260;2023-12-14T04:10:41;93582.66;;;7.02;100.00
12785;BME280;6456;42.680;23.260;2023-12-14T04:13:08;93599.47;;;6.88;100.00
12785;BME280;6456;42.680;23.260;2023-12-14T04:15:35;93566.09;;;6.65;100.00
12785;BME280;6456;42.680;23.260;2023-12-14T04:18:03;93636.31;;;7.11;100.00
12785;BME280;6456;42.680;23.260;2023-12-14T04:20:30;93638.03;;;7.17;100.00
12785;BME280;6456;42.680;23.260;2023-12-14T04:22:59;93579.41;;;6.82;100.00
12785;BME280;6456;42.680;23.260;2023-12-14T04:25:26;93611.06;;;7.17;100.00
12785;BME280;6456;42.680;23.260;2023-12-14T04:27:53;93607.22;;;7.19;100.00
12785;BME280;6456;42.680;23.260;2023-12-14T04:30:21;93557.22;;;6.91;100.00
12785;BME280;6456;42.680;23.260;2023-12-14T04:32:48;93593.84;;;7.09;100.00
12785;BME280;6456;42.680;23.260;2023-12-14T04:35:15;93594.44;;;7.11;100.00
12785;BME280;6456;42.680;23.260;2023-12-14T04:37:42;93554.81;;;6.89;100.00
12785;BME280;6456;42.680;23.260;2023-12-14T04:40:11;93627.19;;;7.38;100.00
12785;BME280;6456;42.680;23.260;2023-12-14T04:42:39;93612.34;;;7.32;100.00
12785;BME280;6456;42.680;23.260;2023-12-14T04:45:07;93598.81;;;7.17;100.00
12785;BME280;6456;42.680;23.260;2023-12-14T04:47:35;93590.53;;;7.20;100.00
12785;BME280;6456;42.680;23.260;2023-12-14T04:50:02;93625.72;;;7.42;100.00
12785;BME280;6456;42.680;23.260;2023-12-14T04:52:30;93616.41;;;7.28;100.00
12785;BME280;6456;42.680;23.260;2023-12-14T04:54:58;93630.53;;;7.45;100.00
12785;BME280;6456;42.680;23.260;2023-12-14T04:57:26;93612.13;;;7.34;100.00
12785;BME280;6456;42.680;23.260;2023-12-14T04:59:53;93629.94;;;7.43;100.00
12785;BME280;6456;42.680;23.260;2023-12-14T05:02:20;93606.09;;;7.33;100.00
12785;BME280;6456;42.680;23.260;2023-12-14T05:04:47;93617.31;;;7.58;100.00
12785;BME280;6456;42.680;23.260;2023-12-14T05:07:15;93620.13;;;7.57;100.00
12785;BME280;6456;42.680;23.260;2023-12-14T05:09:42;93621.22;;;7.67;100.00
12785;BME280;6456;42.680;23.260;2023-12-14T05:12:09;93625.16;;;7.58;100.00
12785;BME280;6456;42.680;23.260;2023-12-14T05:14:37;93623.53;;;7.57;100.00
12785;BME280;6456;42.680;23.260;2023-12-14T05:17:04;93607.50;;;7.54;100.00
12785;BME280;6456;42.680;23.260;2023-12-14T05:19:32;93617.16;;;7.53;100.00
12785;BME280;6456;42.680;23.260;2023-12-14T05:21:59;93622.81;;;7.50;100.00
12785;BME280;6456;42.680;23.260;2023-12-14T05:24:26;93642.53;;;7.53;100.00
12785;BME280;6456;42.680;23.260;2023-12-14T05:26:53;93641.94;;;7.51;100.00
12785;BME280;6456;42.680;23.260;2023-12-14T05:29:21;93611.69;;;7.37;100.00
12785;BME280;6456;42.680;23.260;2023-12-14T05:31:50;93627.19;;;7.38;100.00
12785;BME280;6456;42.680;23.260;2023-12-14T05:34:17;93635.34;;;7.48;100.00
12785;BME280;6456;42.680;23.260;2023-12-14T05:36:44;93621.94;;;7.38;100.00
12785;BME280;6456;42.680;23.260;2023-12-14T05:39:11;93662.09;;;7.50;100.00
12785;BME280;6456;42.680;23.260;2023-12-14T05:41:41;93640.41;;;7.43;100.00
12785;BME280;6456;42.680;23.260;2023-12-14T05:44:08;93633.41;;;7.37;100.00
12785;BME280;6456;42.680;23.260;2023-12-14T05:46:37;93646.81;;;7.47;100.00
12785;BME280;6456;42.680;23.260;2023-12-14T05:49:05;93648.00;;;7.51;100.00
12785;BME280;6456;42.680;23.260;2023-12-14T05:51:33;93658.63;;;7.56;100.00
12785;BME280;6456;42.680;23.260;2023-12-14T05:54:00;93652.78;;;7.54;100.00
12785;BME280;6456;42.680;23.260;2023-12-14T05:56:27;93667.63;;;7.60;100.00
12785;BME280;6456;42.680;23.260;2023-12-14T05:58:54;93641.16;;;7.50;100.00
12785;BME280;6456;42.680;23.260;2023-12-14T06:01:23;93670.66;;;7.57;100.00
12785;BME280;6456;42.680;23.260;2023-12-14T06:03:50;93658.16;;;7.59;100.00
12785;BME280;6456;42.680;23.260;2023-12-14T06:06:19;93649.16;;;7.55;100.00
12785;BME280;6456;42.680;23.260;2023-12-14T06:08:45;93653.38;;;7.56;100.00
12785;BME280;6456;42.680;23.260;2023-12-14T06:11:14;93666.75;;;7.66;100.00
12785;BME280;6456;42.680;23.260;2023-12-14T06:13:41;93646.59;;;7.67;100.00
12785;BME280;6456;42.680;23.260;2023-12-14T06:16:08;93644.78;;;7.67;100.00
12785;BME280;6456;42.680;23.260;2023-12-14T06:18:39;93669.16;;;7.86;100.00
12785;BME280;6456;42.680;23.260;2023-12-14T06:21:07;93669.75;;;7.88;100.00
12785;BME280;6456;42.680;23.260;2023-12-14T06:23:36;93685.38;;;7.95;100.00
12785;BME280;6456;42.680;23.260;2023-12-14T06:26:03;93667.13;;;7.88;100.00
12785;BME280;6456;42.680;23.260;2023-12-14T06:28:31;93690.31;;;8.03;100.00
12785;BME280;6456;42.680;23.260;2023-12-14T06:30:58;93669.66;;;7.95;100.00
12785;BME280;6456;42.680;23.260;2023-12-14T06:33:26;93641.94;;;7.87;100.00
12785;BME280;6456;42.680;23.260;2023-12-14T06:35:54;93684.34;;;8.14;100.00
12785;BME280;6456;42.680;23.260;2023-12-14T06:38:21;93668.13;;;8.05;100.00
12785;BME280;6456;42.680;23.260;2023-12-14T06:40:50;93683.56;;;8.13;100.00
12785;BME280;6456;42.680;23.260;2023-12-14T06:43:17;93694.31;;;8.23;100.00
12785;BME280;6456;42.680;23.260;2023-12-14T06:45:44;93689.59;;;8.14;100.00
12785;BME280;6456;42.680;23.260;2023-12-14T06:48:11;93701.38;;;8.23;100.00
12785;BME280;6456;42.680;23.260;2023-12-14T06:50:38;93700.94;;;8.26;100.00
12785;BME280;6456;42.680;23.260;2023-12-14T06:53:05;93709.53;;;8.33;100.00
12785;BME280;6456;42.680;23.260;2023-12-14T06:55:32;93717.81;;;8.48;100.00
12785;BME280;6456;42.680;23.260;2023-12-14T06:58:00;93706.66;;;8.53;100.00
12785;BME280;6456;42.680;23.260;2023-12-14T07:00:27;93703.97;;;8.59;100.00
12785;BME280;6456;42.680;23.260;2023-12-14T07:02:55;93707.50;;;8.65;100.00
12785;BME280;6456;42.680;23.260;2023-12-14T07:05:22;93694.91;;;8.44;100.00
12785;BME280;6456;42.680;23.260;2023-12-14T07:07:49;93714.56;;;8.64;100.00
12785;BME280;6456;42.680;23.260;2023-12-14T07:10:16;93718.38;;;8.68;100.00
12785;BME280;6456;42.680;23.260;2023-12-14T07:12:43;93717.91;;;9.01;100.00
12785;BME280;6456;42.680;23.260;2023-12-14T07:15:12;93715.72;;;9.10;100.00
12785;BME280;6456;42.680;23.260;2023-12-14T07:17:39;93731.41;;;9.16;100.00
12785;BME280;6456;42.680;23.260;2023-12-14T07:20:07;93712.78;;;9.06;100.00
12785;BME280;6456;42.680;23.260;2023-12-14T07:22:34;93740.78;;;9.24;100.00
12785;BME280;6456;42.680;23.260;2023-12-14T07:25:01;93715.28;;;9.13;100.00
12785;BME280;6456;42.680;23.260;2023-12-14T07:27:29;93754.16;;;9.34;100.00
12785;BME280;6456;42.680;23.260;2023-12-14T07:29:55;93714.41;;;9.19;100.00
12785;BME280;6456;42.680;23.260;2023-12-14T07:32:24;93721.41;;;9.36;100.00
12785;BME280;6456;42.680;23.260;2023-12-14T07:34:52;93719.44;;;9.43;100.00
12785;BME280;6456;42.680;23.260;2023-12-14T07:37:20;93724.69;;;9.55;100.00
12785;BME280;6456;42.680;23.260;2023-12-14T07:39:47;93738.63;;;9.67;100.00
12785;BME280;6456;42.680;23.260;2023-12-14T07:42:14;93752.69;;;9.73;100.00
12785;BME280;6456;42.680;23.260;2023-12-14T07:44:45;93748.81;;;9.75;100.00
12785;BME280;6456;42.680;23.260;2023-12-14T07:47:12;93747.56;;;9.78;100.00
12785;BME280;6456;42.680;23.260;2023-12-14T07:49:40;93752.13;;;9.82;100.00
12785;BME280;6456;42.680;23.260;2023-12-14T07:52:07;93749.84;;;9.86;100.00
12785;BME280;6456;42.680;23.260;2023-12-14T07:54:35;93750.53;;;9.81;100.00
12785;BME280;6456;42.680;23.260;2023-12-14T07:57:02;93753.50;;;9.96;100.00
12785;BME280;6456;42.680;23.260;2023-12-14T07:59:29;93766.88;;;10.06;100.00
12785;BME280;6456;42.680;23.260;2023-12-14T08:01:56;93769.19;;;10.14;100.00
12785;BME280;6456;42.680;23.260;2023-12-14T08:04:23;93767.56;;;10.25;100.00
12785;BME280;6456;42.680;23.260;2023-12-14T08:06:59;93729.38;;;10.11;100.00
12785;BME280;6456;42.680;23.260;2023-12-14T08:09:26;93729.63;;;10.21;100.00
12785;BME280;6456;42.680;23.260;2023-12-14T08:11:53;93761.91;;;10.45;100.00
12785;BME280;6456;42.680;23.260;2023-12-14T08:14:20;93764.19;;;10.53;100.00
12785;BME280;6456;42.680;23.260;2023-12-14T08:16:47;93763.28;;;10.59;100.00
12785;BME280;6456;42.680;23.260;2023-12-14T08:19:14;93758.31;;;10.74;100.00
12785;BME280;6456;42.680;23.260;2023-12-14T08:21:41;93763.22;;;10.82;100.00
12785;BME280;6456;42.680;23.260;2023-12-14T08:24:09;93734.72;;;10.79;100.00
12785;BME280;6456;42.680;23.260;2023-12-14T08:26:36;93745.06;;;10.97;100.00
12785;BME280;6456;42.680;23.260;2023-12-14T08:29:03;93759.28;;;11.13;100.00
12785;BME280;6456;42.680;23.260;2023-12-14T08:31:30;93732.47;;;10.99;100.00
12785;BME280;6456;42.680;23.260;2023-12-14T08:34:01;93764.09;;;11.32;100.00
12785;BME280;6456;42.680;23.260;2023-12-14T08:36:28;93764.78;;;11.39;100.00
12785;BME280;6456;42.680;23.260;2023-12-14T08:38:57;93766.22;;;11.47;100.00
12785;BME280;6456;42.680;23.260;2023-12-14T08:41:27;93766.47;;;11.62;100.00
12785;BME280;6456;42.680;23.260;2023-12-14T08:43:54;93764.81;;;11.73;100.00
12785;BME280;6456;42.680;23.260;2023-12-14T08:46:21;93768.78;;;11.75;100.00
12785;BME280;6456;42.680;23.260;2023-12-14T08:48:49;93775.19;;;11.79;100.00
12785;BME280;6456;42.680;23.260;2023-12-14T08:51:16;93746.41;;;11.61;100.00
12785;BME280;6456;42.680;23.260;2023-12-14T08:53:43;93754.03;;;11.91;100.00
12785;BME280;6456;42.680;23.260;2023-12-14T08:56:10;93769.25;;;12.05;100.00
12785;BME280;6456;42.680;23.260;2023-12-14T08:58:38;93771.50;;;12.13;100.00
12785;BME280;6456;42.680;23.260;2023-12-14T09:01:04;93778.19;;;12.21;100.00
12785;BME280;6456;42.680;23.260;2023-12-14T09:03:31;93771.31;;;12.20;100.00
12785;BME280;6456;42.680;23.260;2023-12-14T09:05:58;93772.50;;;12.29;100.00
12785;BME280;6456;42.680;23.260;2023-12-14T09:08:28;93785.84;;;12.39;100.00
12785;BME280;6456;42.680;23.260;2023-12-14T09:10:55;93769.66;;;12.52;100.00
12785;BME280;6456;42.680;23.260;2023-12-14T09:13:22;93762.47;;;12.69;100.00
12785;BME280;6456;42.680;23.260;2023-12-14T09:15:50;93759.47;;;12.82;100.00
12785;BME280;6456;42.680;23.260;2023-12-14T09:18:19;93763.81;;;12.94;100.00
12785;BME280;6456;42.680;23.260;2023-12-14T09:20:48;93764.19;;;13.02;100.00
12785;BME280;6456;42.680;23.260;2023-12-14T09:23:16;93770.91;;;13.10;100.00
12785;BME280;6456;42.680;23.260;2023-12-14T09:25:44;93742.75;;;12.99;99.03
12785;BME280;6456;42.680;23.260;2023-12-14T09:28:11;93762.97;;;13.10;99.12
12785;BME280;6456;42.680;23.260;2023-12-14T09:30:38;93774.69;;;13.19;98.57
12785;BME280;6456;42.680;23.260;2023-12-14T09:33:06;93774.41;;;13.20;98.78
12785;BME280;6456;42.680;23.260;2023-12-14T09:35:34;93781.91;;;13.28;98.58
12785;BME280;6456;42.680;23.260;2023-12-14T09:38:02;93791.53;;;13.39;98.15
12785;BME280;6456;42.680;23.260;2023-12-14T09:40:29;93790.78;;;13.44;96.33
12785;BME280;6456;42.680;23.260;2023-12-14T09:42:56;93798.44;;;13.45;95.56
12785;BME280;6456;42.680;23.260;2023-12-14T09:45:24;93760.22;;;13.26;95.63
12785;BME280;6456;42.680;23.260;2023-12-14T09:47:54;93780.66;;;13.36;94.43
12785;BME280;6456;42.680;23.260;2023-12-14T09:50:23;93756.94;;;13.14;94.02
12785;BME280;6456;42.680;23.260;2023-12-14T09:52:50;93803.00;;;13.50;93.47
12785;BME280;6456;42.680;23.260;2023-12-14T09:55:17;93784.66;;;13.38;93.27
12785;BME280;6456;42.680;23.260;2023-12-14T09:57:44;93805.28;;;13.41;94.09
12785;BME280;6456;42.680;23.260;2023-12-14T10:00:12;93808.25;;;13.45;93.68
12785;BME280;6456;42.680;23.260;2023-12-14T10:02:40;93806.69;;;13.49;93.66
12785;BME280;6456;42.680;23.260;2023-12-14T10:05:09;93789.53;;;13.52;93.44
12785;BME280;6456;42.680;23.260;2023-12-14T10:07:41;93782.38;;;13.47;92.61
12785;BME280;6456;42.680;23.260;2023-12-14T10:10:10;93789.31;;;13.58;92.63
12785;BME280;6456;42.680;23.260;2023-12-14T10:12:50;93767.00;;;13.44;92.61
12785;BME280;6456;42.680;23.260;2023-12-14T10:15:17;93794.66;;;13.63;92.23
12785;BME280;6456;42.680;23.260;2023-12-14T10:17:44;93797.59;;;13.67;91.92
12785;BME280;6456;42.680;23.260;2023-12-14T10:20:19;93769.53;;;13.61;91.49
12785;BME280;6456;42.680;23.260;2023-12-14T10:22:49;93776.16;;;13.63;92.55
12785;BME280;6456;42.680;23.260;2023-12-14T10:25:18;93787.53;;;13.64;93.23
12785;BME280;6456;42.680;23.260;2023-12-14T10:27:46;93787.25;;;13.60;92.74
12785;BME280;6456;42.680;23.260;2023-12-14T10:30:14;93790.28;;;13.47;93.18
12785;BME280;6456;42.680;23.260;2023-12-14T10:32:41;93793.47;;;13.49;96.13
12785;BME280;6456;42.680;23.260;2023-12-14T10:35:09;93797.56;;;13.35;99.19
12785;BME280;6456;42.680;23.260;2023-12-14T10:37:38;93798.75;;;13.22;100.00
12785;BME280;6456;42.680;23.260;2023-12-14T10:40:07;93795.31;;;13.22;100.00
12785;BME280;6456;42.680;23.260;2023-12-14T10:42:36;93792.38;;;13.18;100.00
12785;BME280;6456;42.680;23.260;2023-12-14T10:45:06;93804.16;;;13.11;100.00
12785;BME280;6456;42.680;23.260;2023-12-14T10:47:34;93803.28;;;13.05;100.00
12785;BME280;6456;42.680;23.260;2023-12-14T10:50:01;93814.78;;;12.94;100.00
12785;BME280;6456;42.680;23.260;2023-12-14T10:52:29;93826.03;;;12.84;100.00
12785;BME280;6456;42.680;23.260;2023-12-14T10:55:02;93827.84;;;12.62;100.00
12785;BME280;6456;42.680;23.260;2023-12-14T10:57:33;93839.84;;;12.53;100.00
12785;BME280;6456;42.680;23.260;2023-12-14T11:00:01;93824.94;;;12.42;100.00
12785;BME280;6456;42.680;23.260;2023-12-14T11:02:30;93854.19;;;12.24;100.00
12785;BME280;6456;42.680;23.260;2023-12-14T11:05:05;93859.72;;;12.06;100.00
12785;BME280;6456;42.680;23.260;2023-12-14T11:07:48;93867.06;;;11.87;100.00
12785;BME280;6456;42.680;23.260;2023-12-14T11:10:20;93879.16;;;11.72;100.00
12785;BME280;6456;42.680;23.260;2023-12-14T11:12:55;93883.25;;;11.51;100.00
12785;BME280;6456;42.680;23.260;2023-12-14T11:15:23;93871.50;;;11.42;100.00
12785;BME280;6456;42.680;23.260;2023-12-14T11:18:25;93879.13;;;11.15;100.00
12785;BME280;6456;42.680;23.260;2023-12-14T11:20:55;93871.97;;;10.99;100.00
12785;BME280;6456;42.680;23.260;2023-12-14T11:23:32;93898.66;;;10.91;100.00
12785;BME280;6456;42.680;23.260;2023-12-14T11:26:01;93904.81;;;10.85;100.00
12785;BME280;6456;42.680;23.260;2023-12-14T11:28:32;93896.38;;;10.83;100.00
12785;BME280;6456;42.680;23.260;2023-12-14T11:31:00;93908.84;;;10.76;100.00
12785;BME280;6456;42.680;23.260;2023-12-14T11:33:28;93912.97;;;10.72;100.00
12785;BME280;6456;42.680;23.260;2023-12-14T11:35:55;93930.13;;;10.63;100.00
12785;BME280;6456;42.680;23.260;2023-12-14T11:38:22;93927.63;;;10.56;100.00
12785;BME280;6456;42.680;23.260;2023-12-14T11:40:50;93924.88;;;10.51;100.00
12785;BME280;6456;42.680;23.260;2023-12-14T11:43:18;93950.38;;;10.39;100.00
12785;BME280;6456;42.680;23.260;2023-12-14T11:45:48;93903.56;;;10.18;100.00
12785;BME280;6456;42.680;23.260;2023-12-14T11:48:15;93956.75;;;10.32;100.00
12785;BME280;6456;42.680;23.260;2023-12-14T11:50:42;93938.94;;;10.34;100.00
12785;BME280;6456;42.680;23.260;2023-12-14T11:53:10;93938.25;;;10.26;100.00
12785;BME280;6456;42.680;23.260;2023-12-14T11:55:39;93923.28;;;9.97;100.00
12785;BME280;6456;42.680;23.260;2023-12-14T11:58:07;93980.06;;;10.16;100.00
12785;BME280;6456;42.680;23.260;2023-12-14T12:00:34;93928.28;;;9.87;100.00
12785;BME280;6456;42.680;23.260;2023-12-14T12:03:12;93959.31;;;10.08;100.00
12785;BME280;6456;42.680;23.260;2023-12-14T12:05:42;93958.44;;;9.85;100.00
12785;BME280;6456;42.680;23.260;2023-12-14T12:08:10;93947.28;;;9.89;100.00
12785;BME280;6456;42.680;23.260;2023-12-14T12:10:37;93956.06;;;9.65;100.00
12785;BME280;6456;42.680;23.260;2023-12-14T12:13:06;93953.97;;;9.85;100.00
12785;BME280;6456;42.680;23.260;2023-12-14T12:15:33;93980.63;;;9.89;100.00
12785;BME280;6456;42.680;23.260;2023-12-14T12:18:04;93969.88;;;9.90;100.00
12785;BME280;6456;42.680;23.260;2023-12-14T12:20:32;93949.41;;;9.81;100.00
12785;BME280;6456;42.680;23.260;2023-12-14T12:23:00;93985.66;;;9.90;100.00
12785;BME280;6456;42.680;23.260;2023-12-14T12:25:27;93958.22;;;9.86;100.00
12785;BME280;6456;42.680;23.260;2023-12-14T12:27:54;94000.28;;;9.98;100.00
12785;BME280;6456;42.680;23.260;2023-12-14T12:30:22;93983.47;;;9.87;100.00
12785;BME280;6456;42.680;23.260;2023-12-14T12:32:49;93998.78;;;9.90;100.00
12785;BME280;6456;42.680;23.260;2023-12-14T12:35:17;93969.63;;;9.80;100.00
12785;BME280;6456;42.680;23.260;2023-12-14T12:37:45;93946.38;;;9.65;100.00
12785;BME280;6456;42.680;23.260;2023-12-14T12:40:12;93991.81;;;9.84;100.00
12785;BME280;6456;42.680;23.260;2023-12-14T12:42:45;93970.78;;;9.84;100.00
12785;BME280;6456;42.680;23.260;2023-12-14T12:45:14;93996.03;;;9.85;100.00
12785;BME280;6456;42.680;23.260;2023-12-14T12:47:42;93989.19;;;9.84;100.00
12785;BME280;6456;42.680;23.260;2023-12-14T12:50:09;93979.25;;;9.86;100.00
12785;BME280;6456;42.680;23.260;2023-12-14T12:52:36;93962.13;;;9.65;100.00
12785;BME280;6456;42.680;23.260;2023-12-14T12:55:07;93983.84;;;9.73;100.00
12785;BME280;6456;42.680;23.260;2023-12-14T12:57:35;93961.44;;;9.58;100.00
12785;BME280;6456;42.680;23.260;2023-12-14T13:00:02;94011.38;;;9.70;100.00
12785;BME280;6456;42.680;23.260;2023-12-14T13:02:33;93980.75;;;9.64;100.00
12785;BME280;6456;42.680;23.260;2023-12-14T13:05:00;93986.44;;;9.61;100.00